createdAt,value
2019-02-15T00:02:28.085Z,3.35
2019-02-15T00:04:56.507Z,3.31
2019-02-15T00:07:24.929Z,3.27
2019-02-15T00:09:53.324Z,3.24
2019-02-15T00:12:21.737Z,3.21
2019-02-15T00:14:50.330Z,3.20
2019-02-15T00:17:20.378Z,3.19
2019-02-15T00:19:50.413Z,3.19
2019-02-15T00:22:18.997Z,3.19
2019-02-15T00:24:47.399Z,3.22
2019-02-15T00:27:15.797Z,3.26
2019-02-15T00:29:44.337Z,3.24
2019-02-15T00:32:12.730Z,3.21
2019-02-15T00:34:41.142Z,3.19
2019-02-15T00:37:09.721Z,3.13
2019-02-15T00:39:38.117Z,3.07
2019-02-15T00:42:06.511Z,3.06
2019-02-15T00:44:35.141Z,3.06
2019-02-15T00:47:23.455Z,3.04
2019-02-15T00:49:53.797Z,2.99
2019-02-15T00:52:26.529Z,2.98
2019-02-15T00:54:56.757Z,2.99
2019-02-15T00:57:36.066Z,3.01
2019-02-15T01:00:10.310Z,3.01
2019-02-15T01:02:46.207Z,3.02
2019-02-15T01:05:16.312Z,3.04
2019-02-15T01:07:49.020Z,3.04
2019-02-15T01:10:24.929Z,3.01
2019-02-15T01:12:57.441Z,2.95
2019-02-15T01:15:25.855Z,2.93
2019-02-15T01:17:54.301Z,2.91
2019-02-15T01:20:22.697Z,2.90
2019-02-15T01:22:51.097Z,2.88
2019-02-15T01:25:19.592Z,2.90
2019-02-15T01:27:49.630Z,2.87
2019-02-15T01:30:36.150Z,2.84
2019-02-15T01:33:06.189Z,2.82
2019-02-15T01:35:38.905Z,2.80
2019-02-15T01:38:14.464Z,2.82
2019-02-15T01:40:53.246Z,2.84
2019-02-15T01:43:29.076Z,2.84
2019-02-15T01:45:59.126Z,2.83
2019-02-15T01:48:27.520Z,2.79
2019-02-15T01:50:56.149Z,2.75
2019-02-15T01:53:24.555Z,2.72
2019-02-15T01:55:52.942Z,2.65
2019-02-15T01:58:21.692Z,2.61
2019-02-15T02:00:50.154Z,2.56
2019-02-15T02:03:18.552Z,2.53
2019-02-15T02:05:47.182Z,2.50
2019-02-15T02:08:17.347Z,2.49
2019-02-15T02:10:45.886Z,2.48
2019-02-15T02:13:14.348Z,2.49
2019-02-15T02:15:42.754Z,2.49
2019-02-15T02:18:11.154Z,2.49
2019-02-15T02:20:39.576Z,2.50
2019-02-15T02:23:08.021Z,2.48
2019-02-15T02:25:36.584Z,2.44
2019-02-15T02:28:05.201Z,2.43
2019-02-15T02:30:33.607Z,2.44
2019-02-15T02:33:02.077Z,2.42
2019-02-15T02:35:30.668Z,2.40
2019-02-15T02:37:59.067Z,2.34
2019-02-15T02:40:27.473Z,2.34
2019-02-15T02:42:55.896Z,2.34
2019-02-15T02:45:24.345Z,2.34
2019-02-15T02:47:52.778Z,2.33
2019-02-15T02:50:21.315Z,2.28
2019-02-15T02:52:49.782Z,2.25
2019-02-15T02:55:18.178Z,2.25
2019-02-15T02:57:46.772Z,2.25
2019-02-15T03:00:15.238Z,2.19
2019-02-15T03:02:43.738Z,2.13
2019-02-15T03:05:12.201Z,2.11
2019-02-15T03:07:40.596Z,2.12
2019-02-15T03:10:09.132Z,2.12
2019-02-15T03:12:37.588Z,2.09
2019-02-15T03:15:07.194Z,2.07
2019-02-15T03:17:35.597Z,2.06
2019-02-15T03:20:04.936Z,2.01
2019-02-15T03:22:33.330Z,1.97
2019-02-15T03:25:01.778Z,1.96
2019-02-15T03:27:30.400Z,2.00
2019-02-15T03:29:58.799Z,1.97
2019-02-15T03:32:27.305Z,1.94
2019-02-15T03:34:55.722Z,1.94
2019-02-15T03:37:41.922Z,1.92
2019-02-15T03:40:12.081Z,1.90
2019-02-15T03:42:40.476Z,1.86
2019-02-15T03:45:09.513Z,1.85
2019-02-15T03:47:38.297Z,1.77
2019-02-15T03:50:08.628Z,1.79
2019-02-15T03:52:37.022Z,1.81
2019-02-15T03:55:06.694Z,1.84
2019-02-15T03:57:35.154Z,1.85
2019-02-15T04:00:04.560Z,1.85
2019-02-15T04:02:33.180Z,1.89
2019-02-15T04:05:01.589Z,1.91
2019-02-15T04:07:30.096Z,1.92
2019-02-15T04:09:58.890Z,1.91
2019-02-15T04:12:27.288Z,1.88
2019-02-15T04:14:55.703Z,1.83
2019-02-15T04:17:24.149Z,1.81
2019-02-15T04:19:52.540Z,1.74
2019-02-15T04:22:20.940Z,1.73
2019-02-15T04:24:49.489Z,1.74
2019-02-15T04:27:17.884Z,1.74
2019-02-15T04:29:46.288Z,1.72
2019-02-15T04:32:14.845Z,1.70
2019-02-15T04:34:43.238Z,1.71
2019-02-15T04:37:11.645Z,1.72
2019-02-15T04:39:40.128Z,1.73
2019-02-15T04:42:08.544Z,1.71
2019-02-15T04:44:42.752Z,1.69
2019-02-15T04:47:07.087Z,1.62
2019-02-15T04:49:35.499Z,1.58
2019-02-15T04:52:03.909Z,1.60
2019-02-15T04:54:32.342Z,1.60
2019-02-15T04:57:00.733Z,1.61
2019-02-15T04:59:29.133Z,1.62
2019-02-15T05:01:57.749Z,1.61
2019-02-15T05:04:26.133Z,1.60
2019-02-15T05:06:54.528Z,1.60
2019-02-15T05:09:24.053Z,1.58
2019-02-15T05:11:52.547Z,1.56
2019-02-15T05:14:20.940Z,1.55
2019-02-15T05:16:49.543Z,1.57
2019-02-15T05:19:17.934Z,1.59
2019-02-15T05:21:46.458Z,1.60
2019-02-15T05:24:14.992Z,1.60
2019-02-15T05:26:43.380Z,1.61
2019-02-15T05:29:11.775Z,1.65
2019-02-15T05:31:40.539Z,1.66
2019-02-15T05:34:09.103Z,1.68
2019-02-15T05:36:37.500Z,1.68
2019-02-15T05:39:08.700Z,1.70
2019-02-15T05:41:37.091Z,1.73
2019-02-15T05:44:05.484Z,1.74
2019-02-15T05:46:34.088Z,1.74
2019-02-15T05:49:04.040Z,1.75
2019-02-15T05:51:32.346Z,1.75
2019-02-15T05:54:01.188Z,1.76
2019-02-15T05:56:29.544Z,1.77
2019-02-15T05:58:57.941Z,1.77
2019-02-15T06:01:27.668Z,1.76
2019-02-15T06:03:56.090Z,1.73
2019-02-15T06:06:24.495Z,1.72
2019-02-15T06:08:52.956Z,1.69
2019-02-15T06:11:21.345Z,1.67
2019-02-15T06:13:49.747Z,1.65
2019-02-15T06:16:18.318Z,1.66
2019-02-15T06:18:46.703Z,1.64
2019-02-15T06:21:15.090Z,1.64
2019-02-15T06:23:43.865Z,1.66
2019-02-15T06:26:12.247Z,1.65
2019-02-15T06:28:40.661Z,1.66
2019-02-15T06:31:09.156Z,1.70
2019-02-15T06:33:37.923Z,1.75
2019-02-15T06:36:06.387Z,1.80
2019-02-15T06:38:35.292Z,1.85
2019-02-15T06:41:03.745Z,1.87
2019-02-15T06:43:32.137Z,1.90
2019-02-15T06:46:02.231Z,1.93
2019-02-15T06:48:30.696Z,1.98
2019-02-15T06:50:59.092Z,2.05
2019-02-15T06:53:27.674Z,2.07
2019-02-15T06:55:56.071Z,2.12
2019-02-15T06:58:24.477Z,2.19
2019-02-15T07:01:10.830Z,2.26
2019-02-15T07:03:40.865Z,2.33
2019-02-15T07:06:11.437Z,2.39
2019-02-15T07:08:39.885Z,2.41
2019-02-15T07:11:08.288Z,2.42
2019-02-15T07:13:36.688Z,2.43
2019-02-15T07:16:05.260Z,2.40
2019-02-15T07:18:33.708Z,2.39
2019-02-15T07:21:02.053Z,2.43
2019-02-15T07:23:30.472Z,2.41
2019-02-15T07:25:58.940Z,2.46
2019-02-15T07:28:27.348Z,2.48
2019-02-15T07:30:55.997Z,2.54
2019-02-15T07:33:24.400Z,2.56
2019-02-15T07:35:52.799Z,2.59
2019-02-15T07:38:21.246Z,2.62
2019-02-15T07:40:49.652Z,2.63
2019-02-15T07:43:18.055Z,2.68
2019-02-15T07:45:46.503Z,2.74
2019-02-15T07:48:14.907Z,2.82
2019-02-15T07:50:43.307Z,2.88
2019-02-15T07:53:11.737Z,2.94
2019-02-15T07:55:40.151Z,3.00
2019-02-15T07:58:08.550Z,3.08
2019-02-15T08:00:37.011Z,3.19
2019-02-15T08:03:05.410Z,3.30
2019-02-15T08:05:33.965Z,3.39
2019-02-15T08:08:02.420Z,3.47
2019-02-15T08:10:30.813Z,3.53
2019-02-15T08:12:59.209Z,3.59
2019-02-15T08:15:35.861Z,3.61
2019-02-15T08:17:57.945Z,3.65
2019-02-15T08:20:26.351Z,3.75
2019-02-15T08:22:54.811Z,3.86
2019-02-15T08:25:23.209Z,3.96
2019-02-15T08:27:51.621Z,4.04
2019-02-15T08:30:22.033Z,4.08
2019-02-15T08:32:50.237Z,4.11
2019-02-15T08:35:18.638Z,4.17
2019-02-15T08:37:47.147Z,4.22
2019-02-15T08:40:15.537Z,4.27
2019-02-15T08:42:46.003Z,4.32
2019-02-15T08:45:14.430Z,4.45
2019-02-15T08:47:42.882Z,4.58
2019-02-15T08:50:12.211Z,4.74
2019-02-15T08:52:40.777Z,4.86
2019-02-15T08:55:11.008Z,4.96
2019-02-15T08:57:39.411Z,5.01
2019-02-15T09:00:13.092Z,5.08
2019-02-15T09:02:41.497Z,5.15
2019-02-15T09:05:13.203Z,5.25
2019-02-15T09:07:41.885Z,5.31
2019-02-15T09:10:12.327Z,5.39
2019-02-15T09:12:40.739Z,5.47
2019-02-15T09:15:12.351Z,5.54
2019-02-15T09:17:40.817Z,5.60
2019-02-15T09:20:11.260Z,5.70
2019-02-15T09:22:39.907Z,5.79
2019-02-15T09:25:10.351Z,5.84
2019-02-15T09:27:43.169Z,5.90
2019-02-15T09:30:13.900Z,5.99
2019-02-15T09:32:42.307Z,6.08
2019-02-15T09:35:12.149Z,6.16
2019-02-15T09:37:40.643Z,6.29
2019-02-15T09:40:10.450Z,6.43
2019-02-15T09:42:38.923Z,6.55
2019-02-15T09:45:11.948Z,6.65
2019-02-15T09:47:40.353Z,6.72
2019-02-15T09:50:11.993Z,6.81
2019-02-15T09:52:40.227Z,6.85
2019-02-15T09:55:08.800Z,6.90
2019-02-15T09:57:37.203Z,6.94
2019-02-15T10:00:08.549Z,7.00
2019-02-15T10:02:36.943Z,7.08
2019-02-15T10:05:06.988Z,7.18
2019-02-15T10:07:35.467Z,7.29
2019-02-15T10:10:04.736Z,7.42
2019-02-15T10:12:33.130Z,7.48
2019-02-15T10:15:01.558Z,7.52
2019-02-15T10:17:30.038Z,7.60
2019-02-15T10:19:58.435Z,7.68
2019-02-15T10:22:26.867Z,7.69
2019-02-15T10:24:55.263Z,7.78
2019-02-15T10:27:23.672Z,7.87
2019-02-15T10:29:52.273Z,7.97
2019-02-15T10:32:20.728Z,8.05
2019-02-15T10:34:49.131Z,8.12
2019-02-15T10:37:19.266Z,8.20
2019-02-15T10:39:47.670Z,8.31
2019-02-15T10:42:16.082Z,8.38
2019-02-15T10:44:44.546Z,8.45
2019-02-15T10:47:14.475Z,8.57
2019-02-15T10:49:43.157Z,8.72
2019-02-15T10:52:11.807Z,8.87
2019-02-15T10:54:40.209Z,9.02
2019-02-15T10:57:08.615Z,9.14
2019-02-15T10:59:37.079Z,9.26
2019-02-15T11:02:05.827Z,9.38
2019-02-15T11:04:34.237Z,9.46
2019-02-15T11:07:02.765Z,9.55
2019-02-15T11:09:31.183Z,9.65
2019-02-15T11:11:59.654Z,9.74
2019-02-15T11:14:28.103Z,9.83
2019-02-15T11:16:56.505Z,9.90
2019-02-15T11:19:24.914Z,9.93
2019-02-15T11:21:53.334Z,10.01
2019-02-15T11:24:21.741Z,10.10
2019-02-15T11:26:50.140Z,10.18
2019-02-15T11:29:18.592Z,10.22
2019-02-15T11:31:46.985Z,10.35
2019-02-15T11:34:15.411Z,10.44
2019-02-15T11:36:44.025Z,10.52
2019-02-15T11:39:12.425Z,10.61
2019-02-15T11:41:40.831Z,10.70
2019-02-15T11:44:09.257Z,10.76
2019-02-15T11:46:37.757Z,10.89
2019-02-15T11:49:06.163Z,11.00
2019-02-15T11:51:34.836Z,11.08
2019-02-15T11:54:03.241Z,11.12
2019-02-15T11:56:31.637Z,11.16
2019-02-15T11:59:00.080Z,11.23
2019-02-15T12:01:28.489Z,11.35
2019-02-15T12:03:56.882Z,11.46
2019-02-15T12:06:25.356Z,11.53
2019-02-15T12:08:53.750Z,11.58
2019-02-15T12:11:22.196Z,11.63
2019-02-15T12:13:50.812Z,11.68
2019-02-15T12:16:19.304Z,11.70
2019-02-15T12:18:47.686Z,11.76
2019-02-15T12:21:16.116Z,11.81
2019-02-15T12:23:44.981Z,11.84
2019-02-15T12:26:13.403Z,11.83
2019-02-15T12:28:42.019Z,11.90
2019-02-15T12:31:10.423Z,11.97
2019-02-15T12:33:38.826Z,12.09
2019-02-15T12:36:07.357Z,12.16
2019-02-15T12:38:35.828Z,12.27
2019-02-15T12:41:04.237Z,12.36
2019-02-15T12:43:32.888Z,12.45
2019-02-15T12:46:01.421Z,12.52
2019-02-15T12:48:29.817Z,12.58
2019-02-15T12:50:58.474Z,12.60
2019-02-15T12:53:26.940Z,12.67
2019-02-15T12:55:55.338Z,12.71
2019-02-15T12:58:23.885Z,12.80
2019-02-15T13:00:52.379Z,12.93
2019-02-15T13:03:20.790Z,13.05
2019-02-15T13:05:50.077Z,13.06
2019-02-15T13:08:18.686Z,13.08
2019-02-15T13:10:48.973Z,13.13
2019-02-15T13:13:17.800Z,13.25
2019-02-15T13:15:46.215Z,13.36
2019-02-15T13:18:14.587Z,13.46
2019-02-15T13:20:43.086Z,13.47
2019-02-15T13:23:11.481Z,13.50
2019-02-15T13:25:39.876Z,13.56
2019-02-15T13:28:08.351Z,13.65
2019-02-15T13:30:36.723Z,13.75
2019-02-15T13:33:05.119Z,13.80
2019-02-15T13:35:33.677Z,13.82
2019-02-15T13:38:02.136Z,13.81
2019-02-15T13:40:30.533Z,13.80
2019-02-15T13:42:59.205Z,13.78
2019-02-15T13:45:29.516Z,13.83
2019-02-15T13:47:57.728Z,13.90
2019-02-15T13:50:26.160Z,13.96
2019-02-15T13:52:54.571Z,14.03
2019-02-15T13:55:23.336Z,14.08
2019-02-15T13:57:52.009Z,14.11
2019-02-15T14:00:20.379Z,14.09
2019-02-15T14:02:48.779Z,14.09
2019-02-15T14:05:17.372Z,14.13
2019-02-15T14:07:45.839Z,14.15
2019-02-15T14:10:14.873Z,14.14
2019-02-15T14:12:43.530Z,14.10
2019-02-15T14:15:12.967Z,14.12
2019-02-15T14:17:46.304Z,14.17
2019-02-15T14:20:14.675Z,14.26
2019-02-15T14:22:43.204Z,14.30
2019-02-15T14:25:12.445Z,14.30
2019-02-15T14:27:41.195Z,14.33
2019-02-15T14:30:13.855Z,14.33
2019-02-15T14:32:43.210Z,14.35
2019-02-15T14:35:13.501Z,14.35
2019-02-15T14:37:43.453Z,14.36
2019-02-15T14:40:13.358Z,14.42
2019-02-15T14:42:42.003Z,14.43
2019-02-15T14:45:11.674Z,14.44
2019-02-15T14:47:40.161Z,14.46
2019-02-15T14:50:14.826Z,14.50
2019-02-15T14:52:43.243Z,14.57
2019-02-15T14:55:12.127Z,14.63
2019-02-15T14:57:42.017Z,14.67
2019-02-15T15:00:12.408Z,14.69
2019-02-15T15:02:41.067Z,14.67
2019-02-15T15:05:10.588Z,14.66
2019-02-15T15:07:39.030Z,14.63
2019-02-15T15:10:09.281Z,14.54
2019-02-15T15:12:44.090Z,14.27
2019-02-15T15:15:16.462Z,13.93
2019-02-15T15:17:45.375Z,13.63
2019-02-15T15:20:17.222Z,13.39
2019-02-15T15:22:45.632Z,13.19
2019-02-15T15:25:16.770Z,13.01
2019-02-15T15:27:45.214Z,12.84
2019-02-15T15:30:15.029Z,12.70
2019-02-15T15:32:43.568Z,12.59
2019-02-15T15:35:12.945Z,12.49
2019-02-15T15:37:41.419Z,12.44
2019-02-15T15:40:15.046Z,12.37
2019-02-15T15:42:43.443Z,12.29
2019-02-15T15:45:12.794Z,12.19
2019-02-15T15:47:41.301Z,12.07
2019-02-15T15:50:11.445Z,11.96
2019-02-15T15:52:40.083Z,11.83
2019-02-15T15:55:13.443Z,11.71
2019-02-15T15:57:41.896Z,11.63
2019-02-15T16:00:14.946Z,11.52
2019-02-15T16:02:43.947Z,11.42
2019-02-15T16:05:12.481Z,11.34
2019-02-15T16:07:43.289Z,11.26
2019-02-15T16:10:12.678Z,11.16
2019-02-15T16:12:41.097Z,11.05
2019-02-15T16:15:11.426Z,10.90
2019-02-15T16:17:40.074Z,10.76
2019-02-15T16:20:10.955Z,10.64
2019-02-15T16:22:39.362Z,10.55
2019-02-15T16:25:10.590Z,10.45
2019-02-15T16:27:38.987Z,10.34
2019-02-15T16:30:10.722Z,10.22
2019-02-15T16:32:39.141Z,10.12
2019-02-15T16:35:08.285Z,10.01
2019-02-15T16:37:36.715Z,9.91
2019-02-15T16:40:13.694Z,9.83
2019-02-15T16:42:44.532Z,9.75
2019-02-15T16:45:14.676Z,9.65
2019-02-15T16:47:43.345Z,9.59
2019-02-15T16:50:12.377Z,9.51
2019-02-15T16:52:40.944Z,9.43
2019-02-15T16:55:12.678Z,9.35
2019-02-15T16:57:40.434Z,9.26
2019-02-15T17:00:13.550Z,9.17
2019-02-15T17:02:42.047Z,9.08
2019-02-15T17:05:10.787Z,9.01
2019-02-15T17:07:39.186Z,8.93
2019-02-15T17:10:09.632Z,8.85
2019-02-15T17:12:38.133Z,8.79
2019-02-15T17:15:14.542Z,8.67
2019-02-15T17:17:43.002Z,8.59
2019-02-15T17:20:11.647Z,8.56
2019-02-15T17:22:40.162Z,8.53
2019-02-15T17:25:14.501Z,8.46
2019-02-15T17:27:42.983Z,8.40
2019-02-15T17:30:12.167Z,8.33
2019-02-15T17:32:40.652Z,8.27
2019-02-15T17:35:12.517Z,8.22
2019-02-15T17:37:41.124Z,8.17
2019-02-15T17:40:14.631Z,8.11
2019-02-15T17:42:43.030Z,8.07
2019-02-15T17:45:12.874Z,8.04
2019-02-15T17:47:41.339Z,7.99
2019-02-15T17:50:11.070Z,7.92
2019-02-15T17:52:39.586Z,7.86
2019-02-15T17:55:09.819Z,7.81
2019-02-15T17:57:38.558Z,7.79
2019-02-15T18:00:10.361Z,7.76
2019-02-15T18:02:38.793Z,7.71
2019-02-15T18:05:10.570Z,7.64
2019-02-15T18:07:39.167Z,7.59
2019-02-15T18:10:07.632Z,7.52
2019-02-15T18:12:36.320Z,7.48
2019-02-15T18:15:05.765Z,7.39
2019-02-15T18:17:34.175Z,7.32
2019-02-15T18:20:02.638Z,7.32
2019-02-15T18:22:31.061Z,7.25
2019-02-15T18:24:59.460Z,7.22
2019-02-15T18:27:27.857Z,7.21
2019-02-15T18:29:56.631Z,7.18
2019-02-15T18:32:25.024Z,7.15
2019-02-15T18:34:53.438Z,7.09
2019-02-15T18:37:21.968Z,7.06
2019-02-15T18:39:50.354Z,7.07
2019-02-15T18:42:18.784Z,7.05
2019-02-15T18:44:47.207Z,7.04
2019-02-15T18:47:15.605Z,7.03
2019-02-15T18:49:44.095Z,7.01
2019-02-15T18:52:12.756Z,6.99
2019-02-15T18:54:41.158Z,6.96
2019-02-15T18:57:09.555Z,6.93
2019-02-15T18:59:37.975Z,6.91
2019-02-15T19:02:06.441Z,6.87
2019-02-15T19:04:34.842Z,6.85
2019-02-15T19:07:03.632Z,6.82
2019-02-15T19:09:32.028Z,6.77
2019-02-15T19:12:00.505Z,6.73
2019-02-15T19:14:28.932Z,6.73
2019-02-15T19:16:57.331Z,6.71
2019-02-15T19:19:29.024Z,6.71
2019-02-15T19:21:55.919Z,6.68
2019-02-15T19:24:24.342Z,6.66
2019-02-15T19:26:52.802Z,6.62
2019-02-15T19:29:21.232Z,6.57
2019-02-15T19:31:49.629Z,6.50
2019-02-15T19:34:18.089Z,6.44
2019-02-15T19:36:46.516Z,6.41
2019-02-15T19:39:14.914Z,6.34
2019-02-15T19:41:43.317Z,6.31
2019-02-15T19:44:11.736Z,6.30
2019-02-15T19:46:40.118Z,6.28
2019-02-15T19:49:08.515Z,6.24
2019-02-15T19:51:37.265Z,6.24
2019-02-15T19:54:05.739Z,6.21
2019-02-15T19:56:34.138Z,6.18
2019-02-15T19:59:02.746Z,6.15
2019-02-15T20:01:31.151Z,6.15
2019-02-15T20:03:59.548Z,6.14
2019-02-15T20:06:27.998Z,6.14
2019-02-15T20:08:56.390Z,6.14
2019-02-15T20:11:24.822Z,6.10
2019-02-15T20:13:53.350Z,6.07
2019-02-15T20:16:21.744Z,6.04
2019-02-15T20:18:50.143Z,6.02
2019-02-15T20:21:18.567Z,5.98
2019-02-15T20:23:46.980Z,5.95
2019-02-15T20:26:15.397Z,5.91
2019-02-15T20:28:43.824Z,5.90
2019-02-15T20:31:12.222Z,5.86
2019-02-15T20:33:40.618Z,5.79
2019-02-15T20:36:09.061Z,5.73
2019-02-15T20:38:37.468Z,5.70
2019-02-15T20:41:05.884Z,5.67
2019-02-15T20:43:34.493Z,5.64
2019-02-15T20:46:02.898Z,5.63
2019-02-15T20:48:31.360Z,5.61
2019-02-15T20:50:59.781Z,5.60
2019-02-15T20:53:28.171Z,5.61
2019-02-15T20:55:56.562Z,5.58
2019-02-15T20:58:25.181Z,5.55
2019-02-15T21:00:53.649Z,5.51
2019-02-15T21:03:22.056Z,5.50
2019-02-15T21:05:50.612Z,5.49
2019-02-15T21:08:19.007Z,5.46
2019-02-15T21:10:54.576Z,5.43
2019-02-15T21:13:20.416Z,5.38
2019-02-15T21:15:48.083Z,5.34
2019-02-15T21:18:16.575Z,5.32
2019-02-15T21:20:45.182Z,5.31
2019-02-15T21:23:13.580Z,5.28
2019-02-15T21:25:41.978Z,5.24
2019-02-15T21:28:10.388Z,5.25
2019-02-15T21:30:38.814Z,5.24
2019-02-15T21:33:07.274Z,5.24
2019-02-15T21:35:35.701Z,5.23
2019-02-15T21:38:04.170Z,5.18
2019-02-15T21:40:32.592Z,5.12
2019-02-15T21:43:01.206Z,5.07
2019-02-15T21:45:29.607Z,4.99
2019-02-15T21:47:58.006Z,4.96
2019-02-15T21:50:26.546Z,4.99
2019-02-15T21:52:54.939Z,5.02
2019-02-15T21:55:23.338Z,4.99
2019-02-15T21:58:00.788Z,4.95
2019-02-15T22:00:24.172Z,4.96
2019-02-15T22:02:52.568Z,4.92
2019-02-15T22:05:21.265Z,4.90
2019-02-15T22:07:49.659Z,4.92
2019-02-15T22:10:18.062Z,4.96
2019-02-15T22:12:46.526Z,4.95
2019-02-15T22:15:16.467Z,4.92
2019-02-15T22:17:44.860Z,4.89
2019-02-15T22:20:14.720Z,4.86
2019-02-15T22:22:43.165Z,4.88
2019-02-15T22:25:11.671Z,4.87
2019-02-15T22:27:40.354Z,4.84
2019-02-15T22:30:14.302Z,4.83
2019-02-15T22:32:42.883Z,4.80
2019-02-15T22:35:11.689Z,4.77
2019-02-15T22:37:40.153Z,4.73
2019-02-15T22:40:31.293Z,4.71
2019-02-15T22:43:02.468Z,4.69
2019-02-15T22:45:30.967Z,4.66
2019-02-15T22:47:59.468Z,4.66
2019-02-15T22:50:35.630Z,4.66
2019-02-15T22:52:57.968Z,4.63
2019-02-15T22:55:26.574Z,4.60
2019-02-15T22:57:55.001Z,4.61
2019-02-15T23:00:40.328Z,4.59
2019-02-15T23:03:08.782Z,4.54
2019-02-15T23:05:37.170Z,4.52
2019-02-15T23:08:05.594Z,4.53
2019-02-15T23:10:33.986Z,4.58
2019-02-15T23:13:02.384Z,4.58
2019-02-15T23:15:30.803Z,4.51
2019-02-15T23:17:59.202Z,4.49
2019-02-15T23:20:27.622Z,4.44
2019-02-15T23:22:56.022Z,4.39
2019-02-15T23:25:25.106Z,4.34
2019-02-15T23:27:53.762Z,4.30
2019-02-15T23:30:22.210Z,4.25
2019-02-15T23:32:50.600Z,4.23
2019-02-15T23:35:19.003Z,4.21
2019-02-15T23:37:47.470Z,4.20
2019-02-15T23:40:15.868Z,4.20
2019-02-15T23:42:44.260Z,4.14
2019-02-15T23:45:13.080Z,4.11
2019-02-15T23:47:41.526Z,4.07
2019-02-15T23:50:10.102Z,4.05
2019-02-15T23:52:38.508Z,4.02
2019-02-15T23:55:07.079Z,4.02
2019-02-15T23:57:35.492Z,4.01
